Current Conditions
Mostly Clear
Conditions



Pressure
1019.92 (mb) - 30.12 (inHG)
Visibility

10.0 (km) - 6.2 (miles)
   Temperature
9  °C
Temperature
1  °C
Dewpoint
58  %
 Humidity
   Wind Speed
3  km/h
2  kts
2  mph
0.9  m/s
   Wind Direction
N
45°
E
90°
135°
S
180°
225°
W
270°
315°
Calm

Due North
   Airport Data
EBBR
Brussels Airport
Metar :EBBR 282250Z VRB02KT CAVOK 09/01 Q1020 NOSIG
Sat 28th May 23:50 pm
   Raw Metar Info
Raw METAR is the most common format in the world for the transmission of observational weather data. It is highly standardized through the International Civil Aviation Organization (ICAO), which allows it to be understood throughout most of the world.
   API Info
Data Provided by
https://www.checkwx.com/weather/EBBR

Aviation Weather providing METAR, TAF, AIRMET, SIGMET and OUTLOOK Weather Reports
   © Info
CSS/SVG/PHP scripts were developed by weather34.com for use in the weather34 template © 2015-2022

Guide Info provided by Metar-Wikipedia